Time;durP1;ratioP1;P1;durP2;ratioP2;P2;SDS_P1;SDS_P2;PMS_P1;PMS_P2;Temp;Humidity;BMP_temperature;BMP_pressure;BME280_temperature;BME280_humidity;BME280_pressure;Samples;Min_cycle;Max_cycle;Signal;HPM_P1;HPM_P2
2022/06/03 00:02:37;;;;;;;4.90;4.50;;;;;;;;;;5020885;28;20212;-72
2022/06/03 00:05:16;;;;;;;5.30;4.80;;;;;;;;;;5005284;28;20235;-72
2022/06/03 00:07:51;;;;;;;5.07;4.57;;;;;;;;;;5021619;28;20207;-72
2022/06/03 00:10:31;;;;;;;5.43;5.03;;;;;;;;;;5021934;28;20612;-71
2022/06/03 00:13:03;;;;;;;5.20;4.80;;;;;;;;;;5021819;28;20209;-71
2022/06/03 00:15:43;;;;;;;4.63;4.23;;;;;;;;;;5020336;28;20269;-72
2022/06/03 00:18:48;;;;;;;5.00;4.67;;;;;;;;;;5020787;28;20199;-72
2022/06/03 00:21:22;;;;;;;5.60;5.10;;;;;;;;;;5022726;28;20230;-71
2022/06/03 00:23:57;;;;;;;5.80;5.30;;;;;;;;;;5019513;28;20208;-72
2022/06/03 00:26:32;;;;;;;5.90;5.40;;;;;;;;;;5020227;28;20200;-71
2022/06/03 00:29:12;;;;;;;5.00;4.60;;;;;;;;;;5020225;28;20203;-71
2022/06/03 00:31:55;;;;;;;6.13;5.00;;;;;;;;;;5019865;28;20611;-72
2022/06/03 00:34:33;;;;;;;5.47;5.07;;;;;;;;;;5020931;28;20215;-71
2022/06/03 00:37:09;;;;;;;5.57;5.07;;;;;;;;;;5021276;28;20212;-72
2022/06/03 00:39:54;;;;;;;6.47;5.30;;;;;;;;;;5020718;28;20714;-72
2022/06/03 00:42:31;;;;;;;6.17;5.67;;;;;;;;;;5021112;28;20207;-72
2022/06/03 00:45:24;;;;;;;5.53;5.07;;;;;;;;;;5020721;28;20219;-72
2022/06/03 00:47:58;;;;;;;5.20;4.80;;;;;;;;;;5021793;28;20204;-71
2022/06/03 00:50:36;;;;;;;5.63;5.23;;;;;;;;;;5021785;28;20195;-71
2022/06/03 00:53:12;;;;;;;5.27;4.80;;;;;;;;;;5020588;28;20254;-71
2022/06/03 00:55:55;;;;;;;5.47;5.07;;;;;;;;;;5020874;28;20269;-71
2022/06/03 00:58:34;;;;;;;6.73;6.13;;;;;;;;;;5021132;28;20212;-72
2022/06/03 01:01:08;;;;;;;5.90;5.40;;;;;;;;;;5019685;28;20645;-71
2022/06/03 01:03:42;;;;;;;5.80;5.30;;;;;;;;;;5019756;28;20666;-71
2022/06/03 01:06:16;;;;;;;5.80;5.30;;;;;;;;;;5020179;28;20231;-71
2022/06/03 01:08:49;;;;;;;5.13;4.57;;;;;;;;;;5024635;28;20200;-71
2022/06/03 01:11:24;;;;;;;5.37;4.97;;;;;;;;;;5030670;28;20246;-72
2022/06/03 01:13:59;;;;;;;5.03;4.63;;;;;;;;;;5021473;28;20199;-72
2022/06/03 01:16:34;;;;;;;5.20;4.80;;;;;;;;;;5018583;28;20216;-72
2022/06/03 01:19:09;;;;;;;5.67;5.07;;;;;;;;;;5019335;28;20269;-71
2022/06/03 01:21:42;;;;;;;5.97;5.37;;;;;;;;;;5018348;28;20701;-71
2022/06/03 01:24:32;;;;;;;6.17;5.70;;;;;;;;;;5019304;28;20196;-72
2022/06/03 01:27:13;;;;;;;6.00;5.60;;;;;;;;;;5019800;28;20231;-71
2022/06/03 01:29:51;;;;;;;5.90;5.40;;;;;;;;;;5019981;28;20246;-71
2022/06/03 01:32:33;;;;;;;5.80;5.40;;;;;;;;;;5021226;28;20257;-71
2022/06/03 01:35:07;;;;;;;5.97;5.57;;;;;;;;;;5019715;28;20227;-72
2022/06/03 01:37:41;;;;;;;5.93;5.43;;;;;;;;;;5020352;28;20204;-72
2022/06/03 01:40:24;;;;;;;5.50;5.00;;;;;;;;;;5020972;28;20302;-71
2022/06/03 01:43:04;;;;;;;5.90;5.27;;;;;;;;;;5019243;28;20345;-72
2022/06/03 01:45:48;;;;;;;6.20;5.70;;;;;;;;;;5018171;28;20232;-72
2022/06/03 01:48:43;;;;;;;5.77;5.27;;;;;;;;;;5019096;28;20208;-71
2022/06/03 01:51:24;;;;;;;5.20;4.80;;;;;;;;;;5019236;28;20247;-71
2022/06/03 01:54:16;;;;;;;5.17;4.77;;;;;;;;;;5020680;28;20932;-71
2022/06/03 01:56:49;;;;;;;6.57;4.97;;;;;;;;;;5020090;28;20618;-71
2022/06/03 01:59:35;;;;;;;5.37;4.87;;;;;;;;;;5018492;28;20212;-71
2022/06/03 02:02:19;;;;;;;5.37;4.90;;;;;;;;;;4990910;28;20231;-72
2022/06/03 02:05:02;;;;;;;5.50;5.10;;;;;;;;;;5017979;28;20235;-72
2022/06/03 02:07:39;;;;;;;5.17;4.67;;;;;;;;;;5017987;28;20211;-72
2022/06/03 02:10:26;;;;;;;5.50;5.10;;;;;;;;;;5019803;28;20281;-72
2022/06/03 02:13:14;;;;;;;6.10;5.50;;;;;;;;;;5017956;28;20255;-72
2022/06/03 02:16:00;;;;;;;5.80;5.30;;;;;;;;;;5018717;28;21165;-71
2022/06/03 02:18:50;;;;;;;5.77;5.37;;;;;;;;;;5019244;28;20626;-71
2022/06/03 02:21:32;;;;;;;6.13;5.40;;;;;;;;;;5018902;28;20255;-71
2022/06/03 02:24:17;;;;;;;6.10;5.60;;;;;;;;;;5019012;28;21195;-71
2022/06/03 02:26:57;;;;;;;6.00;5.50;;;;;;;;;;5017704;28;20203;-71
2022/06/03 02:32:46;;;;;;;7.60;5.60;;;;;;;;;;5016764;28;20650;-71
2022/06/03 02:35:30;;;;;;;5.70;5.30;;;;;;;;;;5006703;28;20219;-72
2022/06/03 02:38:16;;;;;;;6.50;5.87;;;;;;;;;;5017886;28;20223;-72
2022/06/03 02:40:57;;;;;;;7.13;6.47;;;;;;;;;;5017773;28;20223;-71
2022/06/03 02:43:40;;;;;;;6.93;6.23;;;;;;;;;;5018669;28;20334;-71
2022/06/03 02:46:36;;;;;;;6.77;6.13;;;;;;;;;;5005399;28;20216;-72
2022/06/03 02:49:16;;;;;;;6.63;5.97;;;;;;;;;;5020299;28;20285;-72
2022/06/03 02:51:58;;;;;;;6.20;5.70;;;;;;;;;;5018077;28;20319;-72
2022/06/03 02:54:50;;;;;;;6.60;5.93;;;;;;;;;;5017946;28;20270;-72
2022/06/03 02:57:39;;;;;;;5.90;5.20;;;;;;;;;;5017901;28;20200;-72
2022/06/03 03:00:31;;;;;;;6.57;5.97;;;;;;;;;;5018927;28;20250;-72
2022/06/03 03:03:10;;;;;;;8.83;6.33;;;;;;;;;;5017660;28;20204;-71
2022/06/03 03:05:45;;;;;;;6.10;5.60;;;;;;;;;;5018213;28;20695;-72
2022/06/03 03:08:32;;;;;;;5.83;5.33;;;;;;;;;;5018523;28;20549;-71
2022/06/03 03:11:09;;;;;;;6.23;5.73;;;;;;;;;;5017643;28;20250;-71
2022/06/03 03:13:59;;;;;;;6.40;5.90;;;;;;;;;;5019581;28;20207;-71
2022/06/03 03:16:37;;;;;;;6.20;5.67;;;;;;;;;;5017864;28;20302;-72
2022/06/03 03:19:20;;;;;;;6.40;5.80;;;;;;;;;;5017352;28;20258;-72
2022/06/03 03:22:08;;;;;;;6.27;5.73;;;;;;;;;;5014568;28;20226;-71
2022/06/03 03:24:54;;;;;;;5.87;5.40;;;;;;;;;;5018057;28;20245;-71
2022/06/03 03:27:31;;;;;;;6.67;6.10;;;;;;;;;;5015027;28;20203;-71
2022/06/03 03:30:08;;;;;;;6.90;6.33;;;;;;;;;;5017929;28;20211;-71
2022/06/03 03:32:49;;;;;;;6.60;6.03;;;;;;;;;;5016494;28;20647;-72
2022/06/03 03:35:23;;;;;;;7.00;6.43;;;;;;;;;;5017451;28;20243;-72
2022/06/03 03:38:07;;;;;;;6.70;6.20;;;;;;;;;;5018125;28;20599;-72
2022/06/03 03:40:56;;;;;;;6.87;6.27;;;;;;;;;;5018409;28;20211;-72
2022/06/03 03:43:38;;;;;;;6.60;6.00;;;;;;;;;;5018378;28;20197;-72
2022/06/03 03:46:26;;;;;;;6.23;5.73;;;;;;;;;;5022135;28;20687;-72
2022/06/03 03:49:09;;;;;;;6.43;5.90;;;;;;;;;;5022046;28;20251;-72
2022/06/03 03:51:59;;;;;;;6.03;5.40;;;;;;;;;;5021220;28;21084;-72
2022/06/03 03:54:48;;;;;;;6.63;5.90;;;;;;;;;;5017433;28;20702;-72
2022/06/03 03:57:38;;;;;;;6.90;6.40;;;;;;;;;;5021100;28;20206;-72
2022/06/03 04:00:23;;;;;;;7.50;6.90;;;;;;;;;;5020992;28;20208;-72
2022/06/03 04:03:07;;;;;;;8.10;7.40;;;;;;;;;;5021753;28;20318;-71
2022/06/03 04:05:59;;;;;;;8.50;7.63;;;;;;;;;;5022971;28;20231;-71
2022/06/03 04:08:46;;;;;;;7.80;7.10;;;;;;;;;;5020243;28;20258;-71
2022/06/03 04:11:33;;;;;;;7.90;7.20;;;;;;;;;;4982995;28;20247;-72
2022/06/03 04:14:20;;;;;;;7.67;7.00;;;;;;;;;;5020558;28;20216;-71
2022/06/03 04:17:10;;;;;;;7.43;6.77;;;;;;;;;;5021467;28;20204;-72
2022/06/03 04:19:59;;;;;;;7.40;6.80;;;;;;;;;;5016116;28;20250;-72
2022/06/03 04:22:43;;;;;;;8.03;7.33;;;;;;;;;;5016248;28;20224;-72
2022/06/03 04:25:28;;;;;;;8.57;7.80;;;;;;;;;;5021582;28;20232;-72
2022/06/03 04:28:06;;;;;;;8.77;7.97;;;;;;;;;;5020198;28;20544;-71
2022/06/03 04:30:55;;;;;;;8.77;7.97;;;;;;;;;;5020252;28;20276;-72
2022/06/03 04:33:42;;;;;;;9.47;8.57;;;;;;;;;;5021395;28;20234;-71
2022/06/03 04:36:44;;;;;;;9.07;8.27;;;;;;;;;;4981216;28;20238;-72
2022/06/03 04:39:31;;;;;;;11.30;8.93;;;;;;;;;;5020371;28;20232;-72
2022/06/03 04:42:14;;;;;;;10.60;9.60;;;;;;;;;;5021087;28;20703;-72
2022/06/03 04:45:13;;;;;;;10.27;9.37;;;;;;;;;;5021944;28;20273;-72
2022/06/03 04:47:59;;;;;;;11.33;10.20;;;;;;;;;;4939562;29;20206;-72
2022/06/03 04:50:45;;;;;;;11.27;10.37;;;;;;;;;;5013007;28;20254;-72
2022/06/03 04:53:46;;;;;;;12.70;10.80;;;;;;;;;;5022159;28;20207;-72
2022/06/03 04:56:29;;;;;;;12.73;11.50;;;;;;;;;;5031962;28;20216;-72
2022/06/03 04:59:11;;;;;;;13.50;12.30;;;;;;;;;;5029270;28;20783;-72
2022/06/03 05:02:10;;;;;;;13.77;12.50;;;;;;;;;;5033823;28;20204;-72
2022/06/03 05:05:01;;;;;;;13.33;12.13;;;;;;;;;;5031668;28;20259;-72
2022/06/03 05:08:04;;;;;;;14.63;13.13;;;;;;;;;;5031102;28;20345;-72
2022/06/03 05:10:51;;;;;;;15.13;13.73;;;;;;;;;;5035311;28;20204;-72
2022/06/03 05:13:53;;;;;;;14.73;13.33;;;;;;;;;;5014216;28;20184;-72
2022/06/03 05:16:29;;;;;;;15.20;13.63;;;;;;;;;;5034061;28;20203;-71
2022/06/03 05:19:17;;;;;;;14.53;13.30;;;;;;;;;;5031113;28;20208;-72
2022/06/03 05:22:00;;;;;;;15.17;13.67;;;;;;;;;;5035127;28;20212;-72
2022/06/03 05:24:47;;;;;;;14.33;13.00;;;;;;;;;;5028497;28;20306;-72
2022/06/03 05:27:29;;;;;;;14.20;12.80;;;;;;;;;;5032797;28;20257;-72
2022/06/03 05:30:12;;;;;;;14.43;13.07;;;;;;;;;;5031540;28;20216;-72
2022/06/03 05:32:54;;;;;;;13.80;12.60;;;;;;;;;;5030773;28;20706;-72
2022/06/03 05:35:36;;;;;;;13.60;12.40;;;;;;;;;;5033189;28;20223;-72
2022/06/03 05:38:37;;;;;;;14.10;11.90;;;;;;;;;;5033008;28;20204;-72
2022/06/03 05:44:10;;;;;;;12.33;11.10;;;;;;;;;;5022666;28;20231;-72
2022/06/03 05:46:45;;;;;;;11.70;10.70;;;;;;;;;;5032174;28;20203;-72
2022/06/03 05:49:23;;;;;;;12.30;11.20;;;;;;;;;;5032218;28;20253;-71
2022/06/03 05:51:58;;;;;;;13.27;11.87;;;;;;;;;;5032352;28;20241;-72
2022/06/03 05:54:34;;;;;;;12.23;11.13;;;;;;;;;;5018477;28;20233;-72
2022/06/03 05:57:08;;;;;;;13.13;11.83;;;;;;;;;;5034032;28;20211;-71
2022/06/03 05:59:52;;;;;;;11.20;10.20;;;;;;;;;;5033468;28;20663;-72
2022/06/03 06:02:24;;;;;;;11.47;10.57;;;;;;;;;;5026108;28;20227;-72
2022/06/03 06:05:02;;;;;;;11.73;10.73;;;;;;;;;;5032678;28;20235;-72
2022/06/03 06:07:32;;;;;;;10.97;9.97;;;;;;;;;;5033735;28;20242;-71
2022/06/03 06:10:07;;;;;;;10.30;9.50;;;;;;;;;;5033353;28;20211;-71
2022/06/03 06:12:48;;;;;;;10.30;9.40;;;;;;;;;;5033970;28;20208;-71
2022/06/03 06:15:33;;;;;;;9.90;9.00;;;;;;;;;;5031339;28;20590;-72
2022/06/03 06:18:05;;;;;;;10.27;9.23;;;;;;;;;;5033634;28;20211;-72
2022/06/03 06:20:48;;;;;;;9.20;8.40;;;;;;;;;;5033471;28;20208;-72
2022/06/03 06:23:19;;;;;;;8.83;8.13;;;;;;;;;;5031114;28;20282;-71
2022/06/03 06:25:59;;;;;;;8.63;7.53;;;;;;;;;;5033725;28;20231;-72
2022/06/03 06:28:38;;;;;;;8.10;7.30;;;;;;;;;;5013506;28;20599;-71
2022/06/03 06:31:17;;;;;;;8.33;7.70;;;;;;;;;;5031780;28;20556;-71
2022/06/03 06:34:03;;;;;;;7.40;6.70;;;;;;;;;;5033122;28;20238;-71
2022/06/03 06:36:52;;;;;;;6.60;6.00;;;;;;;;;;5032340;28;20200;-72
2022/06/03 06:39:27;;;;;;;6.27;5.67;;;;;;;;;;5032593;28;20204;-72
2022/06/03 06:41:59;;;;;;;5.73;5.13;;;;;;;;;;5033475;28;20257;-72
2022/06/03 06:44:36;;;;;;;6.87;5.50;;;;;;;;;;5031193;28;20579;-71
2022/06/03 06:47:09;;;;;;;6.13;5.30;;;;;;;;;;5031478;28;20258;-72
2022/06/03 06:49:41;;;;;;;5.30;4.90;;;;;;;;;;5030568;28;20203;-72
2022/06/03 06:52:37;;;;;;;5.50;5.00;;;;;;;;;;5033325;28;20583;-71
2022/06/03 06:55:09;;;;;;;5.60;5.03;;;;;;;;;;5023654;28;20228;-72
2022/06/03 06:57:41;;;;;;;4.55;4.15;;;;;;;;;;5032979;28;20698;-71
2022/06/03 07:00:19;;;;;;;4.57;4.07;;;;;;;;;;5032662;28;20211;-71
2022/06/03 07:02:50;;;;;;;5.22;4.20;;;;;;;;;;5033111;28;20199;-72
2022/06/03 07:05:20;;;;;;;4.38;3.90;;;;;;;;;;5030700;28;20231;-72
2022/06/03 07:07:52;;;;;;;4.72;4.32;;;;;;;;;;5032773;28;20230;-72
2022/06/03 07:10:24;;;;;;;4.93;4.47;;;;;;;;;;5032720;28;20609;-72
2022/06/03 07:12:57;;;;;;;5.32;4.20;;;;;;;;;;5032876;28;20204;-72
2022/06/03 07:15:35;;;;;;;4.40;4.00;;;;;;;;;;5031593;28;20227;-71
2022/06/03 07:20:58;;;;;;;4.30;3.67;;;;;;;;;;5034129;28;20561;-72
2022/06/03 07:23:33;;;;;;;4.13;3.83;;;;;;;;;;5036137;28;20224;-72
2022/06/03 07:26:12;;;;;;;5.03;3.95;;;;;;;;;;5035745;28;20223;-73
2022/06/03 07:28:45;;;;;;;4.80;4.32;;;;;;;;;;5017372;28;20264;-72
2022/06/03 07:31:18;;;;;;;3.97;3.60;;;;;;;;;;5036283;28;20301;-72
2022/06/03 07:33:59;;;;;;;3.75;3.35;;;;;;;;;;5036170;28;20199;-72
2022/06/03 07:36:31;;;;;;;3.80;3.42;;;;;;;;;;5034097;28;20254;-72
2022/06/03 07:39:03;;;;;;;3.85;3.38;;;;;;;;;;5035545;28;20200;-71
2022/06/03 07:41:36;;;;;;;5.50;3.70;;;;;;;;;;5035165;28;20216;-72
2022/06/03 07:44:14;;;;;;;3.38;2.92;;;;;;;;;;5035261;28;20274;-72
2022/06/03 07:46:49;;;;;;;3.30;3.00;;;;;;;;;;5032180;28;20200;-71
2022/06/03 07:49:18;;;;;;;2.75;2.50;;;;;;;;;;5036080;28;20230;-71
2022/06/03 07:51:48;;;;;;;2.95;2.70;;;;;;;;;;5036342;28;20211;-72
2022/06/03 07:54:24;;;;;;;3.47;2.67;;;;;;;;;;5035792;28;20277;-71
2022/06/03 07:57:00;;;;;;;3.05;2.67;;;;;;;;;;5033941;28;20207;-71
2022/06/03 07:59:34;;;;;;;2.50;2.30;;;;;;;;;;5035893;28;20207;-72
2022/06/03 08:02:05;;;;;;;3.17;2.35;;;;;;;;;;5034553;28;20234;-72
2022/06/03 08:04:35;;;;;;;2.10;2.00;;;;;;;;;;5035157;28;20258;-72
2022/06/03 08:12:38;;;;;;;3.03;2.45;;;;;;;;;;5035258;28;20261;-72
2022/06/03 08:15:14;;;;;;;2.65;2.40;;;;;;;;;;5035259;28;20753;-72
2022/06/03 08:17:46;;;;;;;5.57;2.53;;;;;;;;;;5035757;28;20220;-72
2022/06/03 08:20:16;;;;;;;2.75;2.35;;;;;;;;;;5035079;28;20675;-71
2022/06/03 08:22:46;;;;;;;2.50;2.30;;;;;;;;;;5035852;28;20571;-72
2022/06/03 08:25:16;;;;;;;4.07;2.67;;;;;;;;;;5035357;28;20705;-72
2022/06/03 08:27:45;;;;;;;3.80;2.60;;;;;;;;;;5036779;28;20234;-72
2022/06/03 08:30:16;;;;;;;4.38;2.55;;;;;;;;;;5033550;28;20211;-72
2022/06/03 08:32:49;;;;;;;3.58;2.55;;;;;;;;;;5035901;28;20657;-72
2022/06/03 08:35:19;;;;;;;3.80;3.10;;;;;;;;;;5034646;28;20657;-71
2022/06/03 08:37:50;;;;;;;5.47;3.10;;;;;;;;;;5036065;28;20258;-72
2022/06/03 08:40:25;;;;;;;3.75;2.95;;;;;;;;;;5035007;28;20204;-72
2022/06/03 08:42:58;;;;;;;3.55;3.20;;;;;;;;;;5035375;28;20603;-72
2022/06/03 08:45:33;;;;;;;7.35;3.15;;;;;;;;;;5034807;28;20228;-72
2022/06/03 08:48:07;;;;;;;3.15;2.85;;;;;;;;;;5035424;28;20206;-72
2022/06/03 08:50:40;;;;;;;3.50;2.63;;;;;;;;;;5034237;28;20208;-71
2022/06/03 08:53:10;;;;;;;2.83;2.50;;;;;;;;;;5035340;28;20204;-72
2022/06/03 08:55:41;;;;;;;3.80;2.67;;;;;;;;;;5035299;28;20683;-72
2022/06/03 08:58:14;;;;;;;3.75;3.25;;;;;;;;;;5035347;28;20212;-72
2022/06/03 09:00:48;;;;;;;6.38;3.25;;;;;;;;;;5033140;28;20215;-72
2022/06/03 09:03:20;;;;;;;4.88;3.40;;;;;;;;;;5035030;28;20265;-72
2022/06/03 09:05:51;;;;;;;7.93;3.75;;;;;;;;;;5034454;28;20228;-72
2022/06/03 09:08:22;;;;;;;6.60;4.00;;;;;;;;;;5016060;28;20192;-72
2022/06/03 09:10:59;;;;;;;5.40;3.55;;;;;;;;;;5031027;28;20229;-71
2022/06/03 09:13:32;;;;;;;5.57;3.65;;;;;;;;;;5015099;28;20204;-71
2022/06/03 09:16:00;;;;;;;5.35;3.20;;;;;;;;;;5032853;28;20274;-72
2022/06/03 09:18:32;;;;;;;3.80;2.92;;;;;;;;;;5034719;28;20279;-72
2022/06/03 09:21:03;;;;;;;3.72;2.78;;;;;;;;;;5032945;28;20746;-71
2022/06/03 09:23:35;;;;;;;5.07;3.15;;;;;;;;;;5034330;28;20216;-71
2022/06/03 09:26:03;;;;;;;5.22;3.45;;;;;;;;;;5033569;28;20238;-72
2022/06/03 09:28:33;;;;;;;5.35;3.25;;;;;;;;;;5032267;28;20664;-71
2022/06/03 09:31:03;;;;;;;5.78;3.38;;;;;;;;;;5033017;28;20211;-72
2022/06/03 09:33:33;;;;;;;5.22;3.20;;;;;;;;;;5034824;28;20261;-72
2022/06/03 09:36:02;;;;;;;4.18;3.00;;;;;;;;;;5033820;28;20568;-71
2022/06/03 09:38:34;;;;;;;6.68;3.13;;;;;;;;;;5033278;28;20254;-72
2022/06/03 09:41:04;;;;;;;3.88;2.50;;;;;;;;;;5034017;28;20614;-72
2022/06/03 09:43:34;;;;;;;6.25;3.03;;;;;;;;;;5034074;28;20199;-72
2022/06/03 09:46:03;;;;;;;4.63;3.00;;;;;;;;;;5033867;28;20235;-72
2022/06/03 09:48:36;;;;;;;5.45;2.95;;;;;;;;;;5032791;28;20274;-72
2022/06/03 09:51:10;;;;;;;4.72;2.70;;;;;;;;;;5032749;28;20644;-72
2022/06/03 09:53:42;;;;;;;4.70;2.65;;;;;;;;;;5033851;28;20203;-71
2022/06/03 09:56:16;;;;;;;5.32;2.88;;;;;;;;;;5033872;28;20228;-72
2022/06/03 09:58:45;;;;;;;2.85;2.55;;;;;;;;;;5031847;28;20717;-71
2022/06/03 10:01:14;;;;;;;3.17;2.88;;;;;;;;;;5033633;28;20715;-72
2022/06/03 10:03:44;;;;;;;2.53;2.33;;;;;;;;;;5033581;28;20253;-71
2022/06/03 10:06:43;;;;;;;3.58;2.60;;;;;;;;;;5033092;28;20290;-72
2022/06/03 10:14:33;;;;;;;2.50;2.30;;;;;;;;;;5019947;28;20250;-72
2022/06/03 10:17:02;;;;;;;2.35;2.15;;;;;;;;;;5033779;28;20203;-71
2022/06/03 10:19:33;;;;;;;2.70;2.00;;;;;;;;;;5031643;28;20230;-72
2022/06/03 10:22:08;;;;;;;2.55;1.95;;;;;;;;;;5032646;28;20200;-71
2022/06/03 10:24:37;;;;;;;2.08;1.98;;;;;;;;;;5033546;28;20321;-72
2022/06/03 10:27:07;;;;;;;1.85;1.75;;;;;;;;;;5033307;28;20604;-71
2022/06/03 10:29:46;;;;;;;2.55;1.90;;;;;;;;;;5032407;28;20233;-72
2022/06/03 10:32:18;;;;;;;3.80;2.50;;;;;;;;;;5033231;28;20203;-72
2022/06/03 10:34:48;;;;;;;3.60;2.20;;;;;;;;;;5032546;28;20720;-72
2022/06/03 10:37:20;;;;;;;4.57;2.28;;;;;;;;;;5023265;28;20250;-71
2022/06/03 10:39:49;;;;;;;3.33;2.00;;;;;;;;;;5033134;28;20204;-72
2022/06/03 10:42:18;;;;;;;2.42;1.90;;;;;;;;;;5024656;28;20215;-72
2022/06/03 10:44:48;;;;;;;1.90;1.80;;;;;;;;;;5032601;28;20235;-71
2022/06/03 10:47:22;;;;;;;2.50;2.30;;;;;;;;;;5031989;28;20200;-72
2022/06/03 10:49:53;;;;;;;2.17;2.08;;;;;;;;;;5031936;28;20204;-72
2022/06/03 11:03:35;;;;;;;2.80;2.00;;;;;;;;;;5032960;28;20212;-71
2022/06/03 11:06:10;;;;;;;2.00;1.80;;;;;;;;;;5031310;28;20702;-72
2022/06/03 11:08:48;;;;;;;2.67;1.95;;;;;;;;;;5031390;28;20265;-72
2022/06/03 11:11:31;;;;;;;2.22;1.90;;;;;;;;;;5026203;28;20249;-72
2022/06/03 11:13:59;;;;;;;3.20;1.98;;;;;;;;;;5030735;28;20196;-72
2022/06/03 11:16:27;;;;;;;2.80;1.90;;;;;;;;;;5029743;28;20250;-71
2022/06/03 11:18:57;;;;;;;4.05;2.10;;;;;;;;;;5034652;28;20200;-72
2022/06/03 11:21:29;;;;;;;2.55;2.25;;;;;;;;;;5031498;28;20274;-72
2022/06/03 11:23:58;;;;;;;2.38;1.80;;;;;;;;;;5031759;28;20262;-72
2022/06/03 11:26:36;;;;;;;3.50;2.13;;;;;;;;;;5030635;28;20215;-72
2022/06/03 11:29:08;;;;;;;2.05;1.90;;;;;;;;;;5032563;28;20196;-71
2022/06/03 11:31:39;;;;;;;1.90;1.63;;;;;;;;;;5031537;28;20253;-72
2022/06/03 11:34:10;;;;;;;3.08;1.92;;;;;;;;;;5028738;28;20281;-72
2022/06/03 11:36:42;;;;;;;2.33;2.13;;;;;;;;;;5032861;28;20208;-72
2022/06/03 11:39:15;;;;;;;3.30;2.08;;;;;;;;;;5029950;28;20204;-72
2022/06/03 11:41:46;;;;;;;2.58;2.15;;;;;;;;;;5024495;28;20262;-72
2022/06/03 11:44:17;;;;;;;2.97;2.53;;;;;;;;;;5039027;28;20216;-72
2022/06/03 11:46:49;;;;;;;3.10;2.20;;;;;;;;;;5031915;28;20618;-72
2022/06/03 11:49:19;;;;;;;4.05;2.20;;;;;;;;;;5038207;28;20208;-71
2022/06/03 11:51:49;;;;;;;2.45;2.10;;;;;;;;;;5030121;28;20274;-72
2022/06/03 11:54:19;;;;;;;3.28;2.00;;;;;;;;;;5031438;28;20211;-72
2022/06/03 11:56:47;;;;;;;2.90;2.08;;;;;;;;;;5033151;28;20208;-72
2022/06/03 11:59:18;;;;;;;1.77;1.67;;;;;;;;;;5038287;28;20207;-72
2022/06/03 12:01:50;;;;;;;2.17;1.70;;;;;;;;;;5026558;28;20660;-71
2022/06/03 12:04:25;;;;;;;2.00;1.77;;;;;;;;;;5030995;28;20296;-72
2022/06/03 12:06:59;;;;;;;2.08;1.90;;;;;;;;;;5034598;28;20238;-71
2022/06/03 12:09:36;;;;;;;2.97;2.08;;;;;;;;;;5032063;28;20206;-72
2022/06/03 12:14:58;;;;;;;1.77;1.67;;;;;;;;;;5035468;28;20224;-72
2022/06/03 12:17:31;;;;;;;3.17;2.00;;;;;;;;;;5037409;28;20198;-72
2022/06/03 12:19:59;;;;;;;2.75;2.00;;;;;;;;;;5041221;28;20208;-72
2022/06/03 12:22:41;;;;;;;1.90;1.80;;;;;;;;;;5034736;28;20216;-72
2022/06/03 12:25:39;;;;;;;1.80;1.70;;;;;;;;;;5035988;28;20219;-72
2022/06/03 12:28:14;;;;;;;2.22;1.90;;;;;;;;;;5032845;28;20283;-72
2022/06/03 12:30:49;;;;;;;2.63;1.75;;;;;;;;;;5028350;28;20208;-72
2022/06/03 12:33:23;;;;;;;2.05;1.80;;;;;;;;;;5035566;28;20216;-72
2022/06/03 12:35:56;;;;;;;1.90;1.80;;;;;;;;;;5033460;28;20274;-72
2022/06/03 12:39:08;;;;;;;2.15;2.03;;;;;;;;;;5025937;28;20626;-72
2022/06/03 12:41:55;;;;;;;2.80;2.03;;;;;;;;;;5028891;28;20597;-71
2022/06/03 12:44:50;;;;;;;1.80;1.70;;;;;;;;;;5033043;28;20251;-72
2022/06/03 12:47:28;;;;;;;2.55;1.80;;;;;;;;;;5033626;28;20220;-72
2022/06/03 12:49:56;;;;;;;2.10;1.90;;;;;;;;;;5030133;28;20207;-72
2022/06/03 12:52:38;;;;;;;1.88;1.73;;;;;;;;;;5037254;28;20643;-72
2022/06/03 12:55:09;;;;;;;1.85;1.60;;;;;;;;;;5025641;28;20741;-72
2022/06/03 12:57:41;;;;;;;1.48;1.38;;;;;;;;;;5034254;28;20212;-71
2022/06/03 13:00:13;;;;;;;4.45;1.65;;;;;;;;;;5038752;28;20225;-72
2022/06/03 13:02:51;;;;;;;4.32;1.73;;;;;;;;;;5034817;28;20224;-72
2022/06/03 13:05:43;;;;;;;1.73;1.60;;;;;;;;;;5035784;28;20616;-71
2022/06/03 13:08:13;;;;;;;2.30;1.58;;;;;;;;;;5018104;28;20196;-72
2022/06/03 13:10:50;;;;;;;3.28;1.70;;;;;;;;;;5038484;28;20230;-72
2022/06/03 13:13:23;;;;;;;1.88;1.30;;;;;;;;;;5032165;28;20725;-72
2022/06/03 13:15:52;;;;;;;2.83;1.90;;;;;;;;;;5031672;28;20274;-72
2022/06/03 13:18:39;;;;;;;2.10;2.00;;;;;;;;;;5028636;28;20203;-72
2022/06/03 13:21:17;;;;;;;2.00;1.90;;;;;;;;;;5033002;28;20212;-71
2022/06/03 13:23:56;;;;;;;2.30;1.70;;;;;;;;;;5033588;28;20207;-72
2022/06/03 13:26:52;;;;;;;1.70;1.60;;;;;;;;;;5031935;28;20224;-72
2022/06/03 13:29:39;;;;;;;3.53;1.70;;;;;;;;;;4997242;28;20265;-72
2022/06/03 13:32:15;;;;;;;1.70;1.60;;;;;;;;;;5034489;28;20204;-72
2022/06/03 13:34:44;;;;;;;1.73;1.60;;;;;;;;;;5033521;28;20218;-72
2022/06/03 13:37:30;;;;;;;1.98;1.60;;;;;;;;;;5032094;28;20196;-72
2022/06/03 13:40:07;;;;;;;1.80;1.70;;;;;;;;;;5028202;28;20215;-72
2022/06/03 13:43:00;;;;;;;1.92;1.73;;;;;;;;;;5034285;28;20208;-72
2022/06/03 13:45:43;;;;;;;4.60;2.03;;;;;;;;;;5026121;28;20228;-71
2022/06/03 13:48:13;;;;;;;2.25;1.80;;;;;;;;;;5032758;28;20224;-72
2022/06/03 13:50:41;;;;;;;2.22;2.00;;;;;;;;;;5033117;28;20295;-71
2022/06/03 13:53:13;;;;;;;7.68;2.03;;;;;;;;;;5033042;28;20247;-71
2022/06/03 13:55:52;;;;;;;1.70;1.60;;;;;;;;;;5032522;28;20289;-72
2022/06/03 13:58:23;;;;;;;2.10;2.00;;;;;;;;;;5014828;28;20203;-72
2022/06/03 14:00:58;;;;;;;1.88;1.77;;;;;;;;;;5030347;28;20207;-71
2022/06/03 14:03:28;;;;;;;2.00;1.73;;;;;;;;;;5021345;28;20222;-72
2022/06/03 14:05:58;;;;;;;1.88;1.77;;;;;;;;;;5032679;28;20232;-72
2022/06/03 14:08:29;;;;;;;2.25;1.80;;;;;;;;;;5030152;28;20289;-71
2022/06/03 14:11:02;;;;;;;2.90;1.80;;;;;;;;;;5029820;28;20215;-72
2022/06/03 14:13:37;;;;;;;2.95;1.92;;;;;;;;;;5027127;28;20537;-72
2022/06/03 14:16:08;;;;;;;2.72;2.40;;;;;;;;;;5032366;28;20231;-71
2022/06/03 14:18:50;;;;;;;2.80;1.80;;;;;;;;;;5028982;28;20196;-72
2022/06/03 14:21:42;;;;;;;2.75;1.90;;;;;;;;;;5030449;28;20241;-72
2022/06/03 14:24:14;;;;;;;1.77;1.67;;;;;;;;;;5031288;28;20207;-72
2022/06/03 14:26:48;;;;;;;2.88;1.70;;;;;;;;;;5028726;28;20220;-72
2022/06/03 14:29:19;;;;;;;2.42;1.80;;;;;;;;;;5030713;28;20257;-72
2022/06/03 14:31:48;;;;;;;2.13;1.90;;;;;;;;;;5028008;28;20565;-72
2022/06/03 14:34:19;;;;;;;1.80;1.70;;;;;;;;;;5031294;28;20350;-72
2022/06/03 14:36:47;;;;;;;2.40;1.75;;;;;;;;;;5025522;28;20195;-71
2022/06/03 14:39:19;;;;;;;8.98;2.00;;;;;;;;;;5031912;28;20196;-71
2022/06/03 14:41:53;;;;;;;2.78;1.88;;;;;;;;;;5030890;28;20687;-71
2022/06/03 14:44:23;;;;;;;5.22;2.17;;;;;;;;;;5028331;28;20223;-72
2022/06/03 14:46:55;;;;;;;1.95;1.85;;;;;;;;;;5026347;28;20318;-72
2022/06/03 14:49:28;;;;;;;2.25;2.13;;;;;;;;;;5033086;28;20604;-72
2022/06/03 14:51:59;;;;;;;1.70;1.60;;;;;;;;;;5023610;28;20200;-72
2022/06/03 14:54:30;;;;;;;3.22;2.00;;;;;;;;;;5021377;28;20274;-72
2022/06/03 14:57:02;;;;;;;1.83;1.70;;;;;;;;;;5031870;28;20207;-72
2022/06/03 14:59:48;;;;;;;2.55;1.90;;;;;;;;;;5029948;28;20246;-72
2022/06/03 15:02:19;;;;;;;2.38;1.80;;;;;;;;;;5042115;28;20261;-72
2022/06/03 15:04:51;;;;;;;1.90;1.70;;;;;;;;;;5034434;28;20660;-72
2022/06/03 15:07:21;;;;;;;3.70;2.10;;;;;;;;;;5030219;28;20697;-72
2022/06/03 15:09:51;;;;;;;3.20;2.03;;;;;;;;;;5032769;28;20210;-71
2022/06/03 15:12:22;;;;;;;3.15;2.10;;;;;;;;;;5033222;28;20682;-71
2022/06/03 15:14:51;;;;;;;1.92;1.83;;;;;;;;;;5030366;28;20744;-71
2022/06/03 15:17:24;;;;;;;3.40;2.13;;;;;;;;;;5036302;28;20328;-71
2022/06/03 15:19:53;;;;;;;2.92;1.65;;;;;;;;;;5029504;28;20203;-71
2022/06/03 15:22:23;;;;;;;1.98;1.88;;;;;;;;;;5032465;28;20203;-72
2022/06/03 15:24:54;;;;;;;2.17;1.98;;;;;;;;;;5035834;28;20277;-71
2022/06/03 15:27:29;;;;;;;1.90;1.80;;;;;;;;;;5029615;28;20220;-71
2022/06/03 15:29:57;;;;;;;2.88;1.90;;;;;;;;;;5029040;28;20256;-72
2022/06/03 15:32:27;;;;;;;1.80;1.70;;;;;;;;;;5032908;28;20554;-71
2022/06/03 15:35:03;;;;;;;1.95;1.77;;;;;;;;;;5029853;28;20315;-71
2022/06/03 15:37:31;;;;;;;3.47;1.83;;;;;;;;;;5036578;28;20222;-71
2022/06/03 15:40:00;;;;;;;2.38;1.85;;;;;;;;;;5030353;28;20215;-71
2022/06/03 15:42:30;;;;;;;2.30;2.10;;;;;;;;;;5035092;28;20219;-71
2022/06/03 15:45:02;;;;;;;2.05;1.95;;;;;;;;;;5034976;28;20234;-71
2022/06/03 15:47:35;;;;;;;3.55;2.00;;;;;;;;;;5045726;28;20432;-71
2022/06/03 15:50:06;;;;;;;2.80;2.20;;;;;;;;;;5042070;28;20629;-71
2022/06/03 15:52:41;;;;;;;2.33;2.00;;;;;;;;;;5033000;28;20667;-71
2022/06/03 15:55:10;;;;;;;2.20;2.00;;;;;;;;;;5036881;28;20642;-72
2022/06/03 15:57:46;;;;;;;3.78;2.10;;;;;;;;;;5039831;28;20597;-71
2022/06/03 16:00:16;;;;;;;2.15;1.92;;;;;;;;;;5032896;28;20204;-71
2022/06/03 16:02:49;;;;;;;2.38;1.80;;;;;;;;;;5044685;28;20210;-71
2022/06/03 16:05:29;;;;;;;3.70;1.85;;;;;;;;;;5036172;28;20319;-71
2022/06/03 16:08:03;;;;;;;2.28;2.10;;;;;;;;;;5033791;28;20243;-72
2022/06/03 16:10:33;;;;;;;2.28;2.08;;;;;;;;;;5037989;28;20210;-71
2022/06/03 16:13:17;;;;;;;3.03;1.90;;;;;;;;;;5049420;28;20195;-71
2022/06/03 16:15:51;;;;;;;2.00;1.90;;;;;;;;;;5036394;28;20230;-72